sensor_id;sensor_type;location;lat;lon;timestamp;temperature;humidity
68177;DHT22;56478;50.982;7.032;2022-12-20T00:00:52;10.81;78.64
68177;DHT22;56478;50.982;7.032;2022-12-20T00:03:18;10.83;78.55
68177;DHT22;56478;50.982;7.032;2022-12-20T00:05:45;10.94;78.34
68177;DHT22;56478;50.982;7.032;2022-12-20T00:08:11;10.95;78.16
68177;DHT22;56478;50.982;7.032;2022-12-20T00:10:38;10.98;78.25
68177;DHT22;56478;50.982;7.032;2022-12-20T00:13:04;10.98;78.33
68177;DHT22;56478;50.982;7.032;2022-12-20T00:15:30;11.08;78.13
68177;DHT22;56478;50.982;7.032;2022-12-20T00:17:56;11.07;78.20
68177;DHT22;56478;50.982;7.032;2022-12-20T00:20:22;11.22;78.16
68177;DHT22;56478;50.982;7.032;2022-12-20T00:22:48;11.20;78.18
68177;DHT22;56478;50.982;7.032;2022-12-20T00:25:13;11.16;78.63
68177;DHT22;56478;50.982;7.032;2022-12-20T00:27:39;11.23;78.40
68177;DHT22;56478;50.982;7.032;2022-12-20T00:30:05;11.18;78.55
68177;DHT22;56478;50.982;7.032;2022-12-20T00:32:33;11.25;78.33
68177;DHT22;56478;50.982;7.032;2022-12-20T00:34:58;11.20;78.99
68177;DHT22;56478;50.982;7.032;2022-12-20T00:37:24;11.26;79.09
68177;DHT22;56478;50.982;7.032;2022-12-20T00:39:49;11.16;79.93
68177;DHT22;56478;50.982;7.032;2022-12-20T00:42:15;11.12;80.48
68177;DHT22;56478;50.982;7.032;2022-12-20T00:44:40;11.08;80.83
68177;DHT22;56478;50.982;7.032;2022-12-20T00:47:06;10.94;81.66
68177;DHT22;56478;50.982;7.032;2022-12-20T00:49:32;10.88;82.14
68177;DHT22;56478;50.982;7.032;2022-12-20T00:51:57;10.83;82.56
68177;DHT22;56478;50.982;7.032;2022-12-20T00:54:23;10.67;83.16
68177;DHT22;56478;50.982;7.032;2022-12-20T00:56:48;10.64;83.44
68177;DHT22;56478;50.982;7.032;2022-12-20T00:59:17;10.64;83.43
68177;DHT22;56478;50.982;7.032;2022-12-20T01:01:46;10.56;83.74
68177;DHT22;56478;50.982;7.032;2022-12-20T01:04:11;10.49;84.01
68177;DHT22;56478;50.982;7.032;2022-12-20T01:06:37;10.33;84.64
68177;DHT22;56478;50.982;7.032;2022-12-20T01:09:03;10.35;84.53
68177;DHT22;56478;50.982;7.032;2022-12-20T01:11:31;10.42;84.37
68177;DHT22;56478;50.982;7.032;2022-12-20T01:14:01;10.46;84.43
68177;DHT22;56478;50.982;7.032;2022-12-20T01:16:34;10.53;84.13
68177;DHT22;56478;50.982;7.032;2022-12-20T01:19:00;10.48;84.36
68177;DHT22;56478;50.982;7.032;2022-12-20T01:21:27;10.35;84.97
68177;DHT22;56478;50.982;7.032;2022-12-20T01:23:53;10.18;85.89
68177;DHT22;56478;50.982;7.032;2022-12-20T01:26:21;10.18;85.70
68177;DHT22;56478;50.982;7.032;2022-12-20T01:28:48;10.11;86.18
68177;DHT22;56478;50.982;7.032;2022-12-20T01:31:17;10.04;86.22
68177;DHT22;56478;50.982;7.032;2022-12-20T01:33:47;10.14;86.05
68177;DHT22;56478;50.982;7.032;2022-12-20T01:36:16;10.08;86.23
68177;DHT22;56478;50.982;7.032;2022-12-20T01:38:41;10.12;86.09
68177;DHT22;56478;50.982;7.032;2022-12-20T01:41:08;10.14;86.24
68177;DHT22;56478;50.982;7.032;2022-12-20T01:43:55;10.14;86.24
68177;DHT22;56478;50.982;7.032;2022-12-20T01:46:24;10.15;86.27
68177;DHT22;56478;50.982;7.032;2022-12-20T01:49:09;10.22;85.99
68177;DHT22;56478;50.982;7.032;2022-12-20T01:51:40;10.22;85.97
68177;DHT22;56478;50.982;7.032;2022-12-20T01:54:31;10.18;86.14
68177;DHT22;56478;50.982;7.032;2022-12-20T01:57:01;10.16;86.15
68177;DHT22;56478;50.982;7.032;2022-12-20T01:59:27;10.11;86.34
68177;DHT22;56478;50.982;7.032;2022-12-20T02:01:56;10.02;86.54
68177;DHT22;56478;50.982;7.032;2022-12-20T02:04:22;10.08;86.44
68177;DHT22;56478;50.982;7.032;2022-12-20T02:06:48;10.05;86.35
68177;DHT22;56478;50.982;7.032;2022-12-20T02:09:14;9.99;86.46
68177;DHT22;56478;50.982;7.032;2022-12-20T02:25:31;9.90;86.17
68177;DHT22;56478;50.982;7.032;2022-12-20T02:30:45;9.80;86.68
68177;DHT22;56478;50.982;7.032;2022-12-20T02:33:13;9.73;87.08
68177;DHT22;56478;50.982;7.032;2022-12-20T02:35:40;9.70;87.44
68177;DHT22;56478;50.982;7.032;2022-12-20T02:40:54;9.64;87.85
68177;DHT22;56478;50.982;7.032;2022-12-20T02:43:22;9.64;88.01
68177;DHT22;56478;50.982;7.032;2022-12-20T02:46:08;9.62;88.23
68177;DHT22;56478;50.982;7.032;2022-12-20T02:48:36;9.62;88.41
68177;DHT22;56478;50.982;7.032;2022-12-20T02:51:03;9.64;88.35
68177;DHT22;56478;50.982;7.032;2022-12-20T02:53:31;9.64;88.53
68177;DHT22;56478;50.982;7.032;2022-12-20T02:56:01;9.67;88.43
68177;DHT22;56478;50.982;7.032;2022-12-20T02:58:39;9.64;88.71
68177;DHT22;56478;50.982;7.032;2022-12-20T03:01:13;9.69;88.49
68177;DHT22;56478;50.982;7.032;2022-12-20T03:03:40;9.66;88.64
68177;DHT22;56478;50.982;7.032;2022-12-20T03:06:06;9.67;88.59
68177;DHT22;56478;50.982;7.032;2022-12-20T03:08:32;9.63;88.82
68177;DHT22;56478;50.982;7.032;2022-12-20T03:10:57;9.59;88.74
68177;DHT22;56478;50.982;7.032;2022-12-20T03:13:24;9.66;88.66
68177;DHT22;56478;50.982;7.032;2022-12-20T03:15:50;9.67;88.62
68177;DHT22;56478;50.982;7.032;2022-12-20T03:18:16;9.59;89.17
68177;DHT22;56478;50.982;7.032;2022-12-20T03:20:41;9.56;89.19
68177;DHT22;56478;50.982;7.032;2022-12-20T03:23:07;9.60;89.11
68177;DHT22;56478;50.982;7.032;2022-12-20T03:25:33;9.67;88.83
68177;DHT22;56478;50.982;7.032;2022-12-20T03:27:58;9.67;88.87
68177;DHT22;56478;50.982;7.032;2022-12-20T03:30:24;9.63;88.89
68177;DHT22;56478;50.982;7.032;2022-12-20T03:32:50;9.66;88.83
68177;DHT22;56478;50.982;7.032;2022-12-20T03:35:15;9.63;88.96
68177;DHT22;56478;50.982;7.032;2022-12-20T03:37:41;9.60;89.19
68177;DHT22;56478;50.982;7.032;2022-12-20T03:40:07;9.59;89.22
68177;DHT22;56478;50.982;7.032;2022-12-20T03:42:34;9.57;89.25
68177;DHT22;56478;50.982;7.032;2022-12-20T03:44:59;9.57;89.36
68177;DHT22;56478;50.982;7.032;2022-12-20T03:47:25;9.60;89.20
68177;DHT22;56478;50.982;7.032;2022-12-20T03:49:50;9.67;89.01
68177;DHT22;56478;50.982;7.032;2022-12-20T03:52:16;9.69;88.95
68177;DHT22;56478;50.982;7.032;2022-12-20T03:54:42;9.70;88.84
68177;DHT22;56478;50.982;7.032;2022-12-20T03:57:07;9.73;88.89
68177;DHT22;56478;50.982;7.032;2022-12-20T03:59:33;9.74;88.78
68177;DHT22;56478;50.982;7.032;2022-12-20T04:02:02;9.73;88.79
68177;DHT22;56478;50.982;7.032;2022-12-20T04:04:28;9.64;89.23
68177;DHT22;56478;50.982;7.032;2022-12-20T04:06:53;9.67;89.06
68177;DHT22;56478;50.982;7.032;2022-12-20T04:09:19;9.66;89.16
68177;DHT22;56478;50.982;7.032;2022-12-20T04:11:44;9.56;89.64
68177;DHT22;56478;50.982;7.032;2022-12-20T04:14:10;9.59;89.66
68177;DHT22;56478;50.982;7.032;2022-12-20T04:16:35;9.62;89.49
68177;DHT22;56478;50.982;7.032;2022-12-20T04:19:01;9.50;90.11
68177;DHT22;56478;50.982;7.032;2022-12-20T04:21:29;9.52;89.91
68177;DHT22;56478;50.982;7.032;2022-12-20T04:23:58;9.49;90.35
68177;DHT22;56478;50.982;7.032;2022-12-20T04:26:25;9.50;90.18
68177;DHT22;56478;50.982;7.032;2022-12-20T04:28:51;9.49;90.20
68177;DHT22;56478;50.982;7.032;2022-12-20T04:31:16;9.50;90.28
68177;DHT22;56478;50.982;7.032;2022-12-20T04:33:42;9.49;90.22
68177;DHT22;56478;50.982;7.032;2022-12-20T04:36:08;9.47;90.44
68177;DHT22;56478;50.982;7.032;2022-12-20T04:38:33;9.52;90.50
68177;DHT22;56478;50.982;7.032;2022-12-20T04:40:59;9.50;90.54
68177;DHT22;56478;50.982;7.032;2022-12-20T04:43:25;9.47;90.68
68177;DHT22;56478;50.982;7.032;2022-12-20T04:45:52;9.45;90.82
68177;DHT22;56478;50.982;7.032;2022-12-20T04:48:21;9.45;90.96
68177;DHT22;56478;50.982;7.032;2022-12-20T04:50:49;9.43;90.98
68177;DHT22;56478;50.982;7.032;2022-12-20T04:53:15;9.46;90.97
68177;DHT22;56478;50.982;7.032;2022-12-20T04:55:59;9.47;90.99
68177;DHT22;56478;50.982;7.032;2022-12-20T04:58:24;9.40;91.08
68177;DHT22;56478;50.982;7.032;2022-12-20T05:00:50;9.39;91.22
68177;DHT22;56478;50.982;7.032;2022-12-20T05:03:17;9.42;91.14
68177;DHT22;56478;50.982;7.032;2022-12-20T05:05:43;9.42;90.98
68177;DHT22;56478;50.982;7.032;2022-12-20T05:08:08;9.46;90.91
68177;DHT22;56478;50.982;7.032;2022-12-20T05:10:34;9.43;91.00
68177;DHT22;56478;50.982;7.032;2022-12-20T05:12:59;9.47;90.87
68177;DHT22;56478;50.982;7.032;2022-12-20T05:15:25;9.50;90.72
68177;DHT22;56478;50.982;7.032;2022-12-20T05:17:50;9.50;90.61
68177;DHT22;56478;50.982;7.032;2022-12-20T05:20:16;9.49;90.68
68177;DHT22;56478;50.982;7.032;2022-12-20T05:22:41;9.53;90.58
68177;DHT22;56478;50.982;7.032;2022-12-20T05:25:26;9.53;90.47
68177;DHT22;56478;50.982;7.032;2022-12-20T05:28:10;9.53;90.38
68177;DHT22;56478;50.982;7.032;2022-12-20T05:30:35;9.54;90.29
68177;DHT22;56478;50.982;7.032;2022-12-20T05:33:01;9.52;90.39
68177;DHT22;56478;50.982;7.032;2022-12-20T05:35:26;9.54;90.15
68177;DHT22;56478;50.982;7.032;2022-12-20T05:37:52;9.50;90.14
68177;DHT22;56478;50.982;7.032;2022-12-20T05:40:17;9.52;90.17
68177;DHT22;56478;50.982;7.032;2022-12-20T05:42:46;9.53;90.21
68177;DHT22;56478;50.982;7.032;2022-12-20T05:45:11;9.56;89.99
68177;DHT22;56478;50.982;7.032;2022-12-20T05:47:37;9.57;90.08
68177;DHT22;56478;50.982;7.032;2022-12-20T05:50:03;9.53;90.05
68177;DHT22;56478;50.982;7.032;2022-12-20T05:52:29;9.50;90.03
68177;DHT22;56478;50.982;7.032;2022-12-20T05:54:55;9.53;89.99
68177;DHT22;56478;50.982;7.032;2022-12-20T05:57:21;9.52;90.10
68177;DHT22;56478;50.982;7.032;2022-12-20T05:59:46;9.56;89.97
68177;DHT22;56478;50.982;7.032;2022-12-20T06:02:12;9.59;89.77
68177;DHT22;56478;50.982;7.032;2022-12-20T06:04:38;9.62;89.44
68177;DHT22;56478;50.982;7.032;2022-12-20T06:07:04;9.64;89.39
68177;DHT22;56478;50.982;7.032;2022-12-20T06:09:31;9.63;89.41
68177;DHT22;56478;50.982;7.032;2022-12-20T06:11:57;9.70;88.98
68177;DHT22;56478;50.982;7.032;2022-12-20T06:14:23;9.73;88.74
68177;DHT22;56478;50.982;7.032;2022-12-20T06:16:49;9.76;88.57
68177;DHT22;56478;50.982;7.032;2022-12-20T06:19:14;9.81;88.33
68177;DHT22;56478;50.982;7.032;2022-12-20T06:21:40;9.77;88.44
68177;DHT22;56478;50.982;7.032;2022-12-20T06:24:05;9.80;88.19
68177;DHT22;56478;50.982;7.032;2022-12-20T06:26:31;9.78;88.08
68177;DHT22;56478;50.982;7.032;2022-12-20T06:29:00;9.76;88.25
68177;DHT22;56478;50.982;7.032;2022-12-20T06:31:26;9.83;87.97
68177;DHT22;56478;50.982;7.032;2022-12-20T06:33:52;9.76;88.19
68177;DHT22;56478;50.982;7.032;2022-12-20T06:36:17;9.84;87.84
68177;DHT22;56478;50.982;7.032;2022-12-20T06:38:43;9.94;87.39
68177;DHT22;56478;50.982;7.032;2022-12-20T06:41:08;9.91;87.25
68177;DHT22;56478;50.982;7.032;2022-12-20T06:43:34;9.93;87.26
68177;DHT22;56478;50.982;7.032;2022-12-20T06:46:00;9.93;87.16
68177;DHT22;56478;50.982;7.032;2022-12-20T06:48:25;9.84;87.57
68177;DHT22;56478;50.982;7.032;2022-12-20T06:50:51;9.86;87.69
68177;DHT22;56478;50.982;7.032;2022-12-20T06:53:16;9.95;87.18
68177;DHT22;56478;50.982;7.032;2022-12-20T06:55:43;9.84;87.57
68177;DHT22;56478;50.982;7.032;2022-12-20T06:58:11;9.81;87.34
68177;DHT22;56478;50.982;7.032;2022-12-20T07:00:36;9.74;87.63
68177;DHT22;56478;50.982;7.032;2022-12-20T07:03:02;9.74;87.35
68177;DHT22;56478;50.982;7.032;2022-12-20T07:05:30;9.91;86.55
68177;DHT22;56478;50.982;7.032;2022-12-20T07:07:56;9.91;86.44
68177;DHT22;56478;50.982;7.032;2022-12-20T07:10:21;10.04;86.09
68177;DHT22;56478;50.982;7.032;2022-12-20T07:12:47;9.99;86.04
68177;DHT22;56478;50.982;7.032;2022-12-20T07:15:12;10.02;86.10
68177;DHT22;56478;50.982;7.032;2022-12-20T07:17:39;10.04;85.93
68177;DHT22;56478;50.982;7.032;2022-12-20T07:20:05;9.93;86.45
68177;DHT22;56478;50.982;7.032;2022-12-20T07:22:31;9.90;86.42
68177;DHT22;56478;50.982;7.032;2022-12-20T07:24:58;9.86;86.37
68177;DHT22;56478;50.982;7.032;2022-12-20T07:27:24;9.76;86.83
68177;DHT22;56478;50.982;7.032;2022-12-20T07:29:50;9.94;86.11
68177;DHT22;56478;50.982;7.032;2022-12-20T07:32:15;9.95;85.91
68177;DHT22;56478;50.982;7.032;2022-12-20T07:34:42;9.94;85.88
68177;DHT22;56478;50.982;7.032;2022-12-20T07:37:08;9.93;85.79
68177;DHT22;56478;50.982;7.032;2022-12-20T07:39:33;9.98;85.66
68177;DHT22;56478;50.982;7.032;2022-12-20T07:41:59;9.98;85.46
68177;DHT22;56478;50.982;7.032;2022-12-20T07:44:24;10.04;85.47
68177;DHT22;56478;50.982;7.032;2022-12-20T07:46:50;10.06;85.44
68177;DHT22;56478;50.982;7.032;2022-12-20T07:49:16;10.08;85.30
68177;DHT22;56478;50.982;7.032;2022-12-20T07:51:46;10.12;85.10
68177;DHT22;56478;50.982;7.032;2022-12-20T07:54:16;10.12;85.22
68177;DHT22;56478;50.982;7.032;2022-12-20T07:56:46;10.08;85.53
68177;DHT22;56478;50.982;7.032;2022-12-20T07:59:13;10.11;85.48
68177;DHT22;56478;50.982;7.032;2022-12-20T08:01:41;10.12;85.32
68177;DHT22;56478;50.982;7.032;2022-12-20T08:04:13;10.11;85.26
68177;DHT22;56478;50.982;7.032;2022-12-20T08:06:49;10.15;85.22
68177;DHT22;56478;50.982;7.032;2022-12-20T08:09:16;10.14;85.20
68177;DHT22;56478;50.982;7.032;2022-12-20T08:11:44;10.14;85.31
68177;DHT22;56478;50.982;7.032;2022-12-20T08:14:11;10.16;85.02
68177;DHT22;56478;50.982;7.032;2022-12-20T08:16:37;10.18;85.20
68177;DHT22;56478;50.982;7.032;2022-12-20T08:19:03;10.21;84.96
68177;DHT22;56478;50.982;7.032;2022-12-20T08:21:29;10.11;85.38
68177;DHT22;56478;50.982;7.032;2022-12-20T08:23:55;10.12;85.40
68177;DHT22;56478;50.982;7.032;2022-12-20T08:26:21;10.19;85.00
68177;DHT22;56478;50.982;7.032;2022-12-20T08:28:47;10.18;85.16
68177;DHT22;56478;50.982;7.032;2022-12-20T08:31:13;10.23;85.17
68177;DHT22;56478;50.982;7.032;2022-12-20T08:33:39;10.29;84.79
68177;DHT22;56478;50.982;7.032;2022-12-20T08:36:08;10.36;84.47
68177;DHT22;56478;50.982;7.032;2022-12-20T08:38:35;10.33;84.56
68177;DHT22;56478;50.982;7.032;2022-12-20T08:41:09;10.33;84.41
68177;DHT22;56478;50.982;7.032;2022-12-20T08:43:35;10.25;84.76
68177;DHT22;56478;50.982;7.032;2022-12-20T08:46:02;10.29;84.46
68177;DHT22;56478;50.982;7.032;2022-12-20T08:48:28;10.21;84.54
68177;DHT22;56478;50.982;7.032;2022-12-20T08:51:03;10.26;84.40
68177;DHT22;56478;50.982;7.032;2022-12-20T08:53:29;10.25;84.26
68177;DHT22;56478;50.982;7.032;2022-12-20T08:56:13;10.25;84.34
68177;DHT22;56478;50.982;7.032;2022-12-20T08:58:43;10.23;84.35
68177;DHT22;56478;50.982;7.032;2022-12-20T09:19:00;10.38;84.11
68177;DHT22;56478;50.982;7.032;2022-12-20T09:21:26;10.35;84.25
68177;DHT22;56478;50.982;7.032;2022-12-20T09:23:54;10.42;84.01
68177;DHT22;56478;50.982;7.032;2022-12-20T09:26:21;10.46;84.06
68177;DHT22;56478;50.982;7.032;2022-12-20T09:28:47;10.56;83.61
68177;DHT22;56478;50.982;7.032;2022-12-20T09:31:15;10.52;83.88
68177;DHT22;56478;50.982;7.032;2022-12-20T09:33:41;10.49;84.08
68177;DHT22;56478;50.982;7.032;2022-12-20T09:36:11;10.55;83.92
68177;DHT22;56478;50.982;7.032;2022-12-20T09:38:36;10.60;83.68
68177;DHT22;56478;50.982;7.032;2022-12-20T09:41:04;10.61;83.74
68177;DHT22;56478;50.982;7.032;2022-12-20T09:43:31;10.63;83.74
68177;DHT22;56478;50.982;7.032;2022-12-20T09:45:59;10.60;83.92
68177;DHT22;56478;50.982;7.032;2022-12-20T09:48:37;10.53;84.55
68177;DHT22;56478;50.982;7.032;2022-12-20T09:57:05;10.61;84.49
68177;DHT22;56478;50.982;7.032;2022-12-20T09:59:28;10.67;84.60
68177;DHT22;56478;50.982;7.032;2022-12-20T10:01:54;10.71;84.51
68177;DHT22;56478;50.982;7.032;2022-12-20T10:04:29;10.71;84.65
68177;DHT22;56478;50.982;7.032;2022-12-20T10:23:03;10.61;86.16
68177;DHT22;56478;50.982;7.032;2022-12-20T10:25:31;10.60;86.46
68177;DHT22;56478;50.982;7.032;2022-12-20T10:28:00;10.64;86.18
68177;DHT22;56478;50.982;7.032;2022-12-20T10:30:28;10.60;86.19
68177;DHT22;56478;50.982;7.032;2022-12-20T10:32:56;10.59;86.37
68177;DHT22;56478;50.982;7.032;2022-12-20T10:35:26;10.63;85.99
68177;DHT22;56478;50.982;7.032;2022-12-20T10:38:04;10.59;86.21
68177;DHT22;56478;50.982;7.032;2022-12-20T10:40:38;10.61;86.03
68177;DHT22;56478;50.982;7.032;2022-12-20T10:43:05;10.61;86.01
68177;DHT22;56478;50.982;7.032;2022-12-20T10:45:34;10.66;85.73
68177;DHT22;56478;50.982;7.032;2022-12-20T10:48:06;10.73;85.33
68177;DHT22;56478;50.982;7.032;2022-12-20T10:53:25;10.92;84.56
68177;DHT22;56478;50.982;7.032;2022-12-20T10:55:52;10.91;84.59
68177;DHT22;56478;50.982;7.032;2022-12-20T10:58:28;10.98;84.08
68177;DHT22;56478;50.982;7.032;2022-12-20T11:01:15;11.05;83.83
68177;DHT22;56478;50.982;7.032;2022-12-20T11:03:57;11.02;83.92
68177;DHT22;56478;50.982;7.032;2022-12-20T11:06:27;11.04;83.65
68177;DHT22;56478;50.982;7.032;2022-12-20T11:09:32;11.05;83.79
68177;DHT22;56478;50.982;7.032;2022-12-20T11:12:01;11.12;83.35
68177;DHT22;56478;50.982;7.032;2022-12-20T11:14:28;11.09;83.38
68177;DHT22;56478;50.982;7.032;2022-12-20T11:16:55;10.95;84.11
68177;DHT22;56478;50.982;7.032;2022-12-20T11:22:37;11.01;83.45
68177;DHT22;56478;50.982;7.032;2022-12-20T11:25:22;11.11;83.12
68177;DHT22;56478;50.982;7.032;2022-12-20T11:30:36;11.05;83.13
68177;DHT22;56478;50.982;7.032;2022-12-20T11:41:01;11.08;83.03
68177;DHT22;56478;50.982;7.032;2022-12-20T11:55:26;11.01;83.78
68177;DHT22;56478;50.982;7.032;2022-12-20T11:58:31;10.95;84.04
68177;DHT22;56478;50.982;7.032;2022-12-20T12:01:03;11.00;83.72
68177;DHT22;56478;50.982;7.032;2022-12-20T12:03:38;10.97;83.94
68177;DHT22;56478;50.982;7.032;2022-12-20T12:06:28;11.12;83.08
68177;DHT22;56478;50.982;7.032;2022-12-20T12:11:34;11.07;83.21
68177;DHT22;56478;50.982;7.032;2022-12-20T12:14:03;11.01;83.36
68177;DHT22;56478;50.982;7.032;2022-12-20T12:16:35;11.12;82.95
68177;DHT22;56478;50.982;7.032;2022-12-20T12:19:02;11.02;83.17
68177;DHT22;56478;50.982;7.032;2022-12-20T12:21:37;11.09;82.93
68177;DHT22;56478;50.982;7.032;2022-12-20T12:26:40;11.08;83.48
68177;DHT22;56478;50.982;7.032;2022-12-20T12:29:10;11.14;83.58
68177;DHT22;56478;50.982;7.032;2022-12-20T12:32:23;11.19;83.65
68177;DHT22;56478;50.982;7.032;2022-12-20T12:38:20;11.22;83.83
68177;DHT22;56478;50.982;7.032;2022-12-20T12:43:36;11.29;84.38
68177;DHT22;56478;50.982;7.032;2022-12-20T12:46:32;11.23;84.66
68177;DHT22;56478;50.982;7.032;2022-12-20T12:51:31;11.19;85.09
68177;DHT22;56478;50.982;7.032;2022-12-20T12:56:41;11.25;85.21
68177;DHT22;56478;50.982;7.032;2022-12-20T12:59:53;11.26;85.31
68177;DHT22;56478;50.982;7.032;2022-12-20T13:04:59;11.22;85.67
68177;DHT22;56478;50.982;7.032;2022-12-20T13:09:58;11.23;85.66
68177;DHT22;56478;50.982;7.032;2022-12-20T13:17:47;11.18;85.93
68177;DHT22;56478;50.982;7.032;2022-12-20T13:20:33;11.09;86.64
68177;DHT22;56478;50.982;7.032;2022-12-20T13:25:51;11.12;86.32
68177;DHT22;56478;50.982;7.032;2022-12-20T13:33:45;11.02;87.01
68177;DHT22;56478;50.982;7.032;2022-12-20T13:43:45;11.01;87.48
68177;DHT22;56478;50.982;7.032;2022-12-20T13:46:17;11.00;87.46
68177;DHT22;56478;50.982;7.032;2022-12-20T13:49:01;11.07;87.37
68177;DHT22;56478;50.982;7.032;2022-12-20T13:51:29;11.04;87.36
68177;DHT22;56478;50.982;7.032;2022-12-20T13:54:00;11.01;87.54
68177;DHT22;56478;50.982;7.032;2022-12-20T13:58:57;10.98;87.72
68177;DHT22;56478;50.982;7.032;2022-12-20T14:01:24;11.01;87.62
68177;DHT22;56478;50.982;7.032;2022-12-20T14:07:59;10.92;87.46
68177;DHT22;56478;50.982;7.032;2022-12-20T14:10:39;10.92;87.29
68177;DHT22;56478;50.982;7.032;2022-12-20T14:13:25;10.95;87.04
68177;DHT22;56478;50.982;7.032;2022-12-20T14:15:51;10.95;86.92
68177;DHT22;56478;50.982;7.032;2022-12-20T14:18:23;10.95;86.86
68177;DHT22;56478;50.982;7.032;2022-12-20T14:20:57;10.92;86.98
68177;DHT22;56478;50.982;7.032;2022-12-20T14:23:26;10.92;86.91
68177;DHT22;56478;50.982;7.032;2022-12-20T14:25:55;10.95;87.07
68177;DHT22;56478;50.982;7.032;2022-12-20T14:30:55;10.95;87.18
68177;DHT22;56478;50.982;7.032;2022-12-20T14:33:36;10.95;87.16
68177;DHT22;56478;50.982;7.032;2022-12-20T14:36:15;10.97;87.26
68177;DHT22;56478;50.982;7.032;2022-12-20T14:38:44;10.95;87.34
68177;DHT22;56478;50.982;7.032;2022-12-20T14:43:55;10.70;88.90
68177;DHT22;56478;50.982;7.032;2022-12-20T14:46:22;10.76;88.62
68177;DHT22;56478;50.982;7.032;2022-12-20T14:48:47;10.81;88.52
68177;DHT22;56478;50.982;7.032;2022-12-20T14:51:22;10.83;88.35
68177;DHT22;56478;50.982;7.032;2022-12-20T14:53:49;10.92;87.84
68177;DHT22;56478;50.982;7.032;2022-12-20T14:56:17;10.90;88.10
68177;DHT22;56478;50.982;7.032;2022-12-20T14:58:44;10.92;88.01
68177;DHT22;56478;50.982;7.032;2022-12-20T15:01:18;10.88;88.01
68177;DHT22;56478;50.982;7.032;2022-12-20T15:03:55;10.87;88.15
68177;DHT22;56478;50.982;7.032;2022-12-20T15:09:02;10.95;87.43
68177;DHT22;56478;50.982;7.032;2022-12-20T15:11:30;10.94;87.42
68177;DHT22;56478;50.982;7.032;2022-12-20T15:13:56;10.97;87.25
68177;DHT22;56478;50.982;7.032;2022-12-20T15:16:28;10.91;87.62
68177;DHT22;56478;50.982;7.032;2022-12-20T15:21:38;10.84;87.84
68177;DHT22;56478;50.982;7.032;2022-12-20T15:24:17;10.90;87.34
68177;DHT22;56478;50.982;7.032;2022-12-20T15:26:46;10.87;87.22
68177;DHT22;56478;50.982;7.032;2022-12-20T15:29:29;10.88;87.05
68177;DHT22;56478;50.982;7.032;2022-12-20T15:32:05;10.95;86.62
68177;DHT22;56478;50.982;7.032;2022-12-20T15:34:34;10.97;86.59
68177;DHT22;56478;50.982;7.032;2022-12-20T15:37:00;10.94;86.82
68177;DHT22;56478;50.982;7.032;2022-12-20T15:39:27;10.98;86.80
68177;DHT22;56478;50.982;7.032;2022-12-20T15:41:53;10.97;86.87
68177;DHT22;56478;50.982;7.032;2022-12-20T15:44:23;10.94;87.12
68177;DHT22;56478;50.982;7.032;2022-12-20T15:46:50;10.90;87.40
68177;DHT22;56478;50.982;7.032;2022-12-20T15:49:23;10.84;87.71
68177;DHT22;56478;50.982;7.032;2022-12-20T15:51:51;10.81;88.02
68177;DHT22;56478;50.982;7.032;2022-12-20T15:54:23;10.85;87.84
68177;DHT22;56478;50.982;7.032;2022-12-20T15:56:52;10.88;87.81
68177;DHT22;56478;50.982;7.032;2022-12-20T15:59:18;10.84;87.85
68177;DHT22;56478;50.982;7.032;2022-12-20T16:01:43;10.88;87.73
68177;DHT22;56478;50.982;7.032;2022-12-20T16:04:15;10.85;87.89
68177;DHT22;56478;50.982;7.032;2022-12-20T16:06:41;10.76;88.70
68177;DHT22;56478;50.982;7.032;2022-12-20T16:09:08;10.81;88.27
68177;DHT22;56478;50.982;7.032;2022-12-20T16:11:34;10.81;88.47
68177;DHT22;56478;50.982;7.032;2022-12-20T16:13:59;10.80;88.50
68177;DHT22;56478;50.982;7.032;2022-12-20T16:16:36;10.84;88.30
68177;DHT22;56478;50.982;7.032;2022-12-20T16:19:02;10.77;88.51
68177;DHT22;56478;50.982;7.032;2022-12-20T16:21:44;10.74;88.63
68177;DHT22;56478;50.982;7.032;2022-12-20T16:24:12;10.71;88.83
68177;DHT22;56478;50.982;7.032;2022-12-20T16:26:38;10.73;88.80
68177;DHT22;56478;50.982;7.032;2022-12-20T16:29:04;10.77;88.52
68177;DHT22;56478;50.982;7.032;2022-12-20T16:31:35;10.83;88.35
68177;DHT22;56478;50.982;7.032;2022-12-20T16:34:04;10.81;88.27
68177;DHT22;56478;50.982;7.032;2022-12-20T16:36:30;10.80;88.39
68177;DHT22;56478;50.982;7.032;2022-12-20T16:38:56;10.71;88.70
68177;DHT22;56478;50.982;7.032;2022-12-20T16:41:26;10.77;88.49
68177;DHT22;56478;50.982;7.032;2022-12-20T16:43:54;10.77;88.38
68177;DHT22;56478;50.982;7.032;2022-12-20T16:46:22;10.76;88.42
68177;DHT22;56478;50.982;7.032;2022-12-20T16:48:48;10.78;88.36
68177;DHT22;56478;50.982;7.032;2022-12-20T16:51:27;10.74;88.42
68177;DHT22;56478;50.982;7.032;2022-12-20T16:54:15;10.71;88.67
68177;DHT22;56478;50.982;7.032;2022-12-20T16:56:41;10.71;88.46
68177;DHT22;56478;50.982;7.032;2022-12-20T16:59:08;10.78;88.35
68177;DHT22;56478;50.982;7.032;2022-12-20T17:01:36;10.76;88.36
68177;DHT22;56478;50.982;7.032;2022-12-20T17:04:03;10.68;88.95
68177;DHT22;56478;50.982;7.032;2022-12-20T17:06:29;10.77;88.46
68177;DHT22;56478;50.982;7.032;2022-12-20T17:08:55;10.77;88.49
68177;DHT22;56478;50.982;7.032;2022-12-20T17:11:23;10.77;88.51
68177;DHT22;56478;50.982;7.032;2022-12-20T17:13:50;10.81;88.41
68177;DHT22;56478;50.982;7.032;2022-12-20T17:16:16;10.76;88.68
68177;DHT22;56478;50.982;7.032;2022-12-20T17:18:44;10.77;88.85
68177;DHT22;56478;50.982;7.032;2022-12-20T17:23:57;10.84;88.61
68177;DHT22;56478;50.982;7.032;2022-12-20T17:26:25;10.83;88.62
68177;DHT22;56478;50.982;7.032;2022-12-20T17:28:53;10.77;89.04
68177;DHT22;56478;50.982;7.032;2022-12-20T17:33:50;10.80;88.88
68177;DHT22;56478;50.982;7.032;2022-12-20T17:36:16;10.74;89.09
68177;DHT22;56478;50.982;7.032;2022-12-20T17:38:42;10.76;88.98
68177;DHT22;56478;50.982;7.032;2022-12-20T17:43:49;10.68;89.38
68177;DHT22;56478;50.982;7.032;2022-12-20T17:46:15;10.67;89.74
68177;DHT22;56478;50.982;7.032;2022-12-20T17:48:41;10.66;89.50
68177;DHT22;56478;50.982;7.032;2022-12-20T17:51:29;10.68;89.48
68177;DHT22;56478;50.982;7.032;2022-12-20T17:53:57;10.63;89.83
68177;DHT22;56478;50.982;7.032;2022-12-20T17:56:25;10.70;89.49
68177;DHT22;56478;50.982;7.032;2022-12-20T17:58:52;10.67;89.63
68177;DHT22;56478;50.982;7.032;2022-12-20T18:01:23;10.60;89.99
68177;DHT22;56478;50.982;7.032;2022-12-20T18:03:50;10.60;90.01
68177;DHT22;56478;50.982;7.032;2022-12-20T18:06:16;10.61;89.81
68177;DHT22;56478;50.982;7.032;2022-12-20T18:08:46;10.60;90.01
68177;DHT22;56478;50.982;7.032;2022-12-20T18:11:12;10.66;89.81
68177;DHT22;56478;50.982;7.032;2022-12-20T18:13:41;10.64;89.93
68177;DHT22;56478;50.982;7.032;2022-12-20T18:16:08;10.68;89.65
68177;DHT22;56478;50.982;7.032;2022-12-20T18:18:33;10.73;89.65
68177;DHT22;56478;50.982;7.032;2022-12-20T18:21:04;10.68;89.96